Time;durP1;ratioP1;P1;durP2;ratioP2;P2;SDS_P1;SDS_P2;PMS_P1;PMS_P2;Temp;Humidity;BMP_temperature;BMP_pressure;BME280_temperature;BME280_humidity;BME280_pressure;Samples;Min_cycle;Max_cycle;Signal;HPM_P1;HPM_P2
2023/11/14 00:00:28;;;;;;;29.50;12.20;;;;;;;2.30;72.40;100888.42;107529;1251;107685;-59
2023/11/14 00:03:16;;;;;;;20.20;11.50;;;;;;;2.30;72.67;100892.54;107572;1253;97922;-59
2023/11/14 00:05:46;;;;;;;19.50;11.20;;;;;;;2.29;72.58;100897.50;107598;1252;97835;-60
2023/11/14 00:08:14;;;;;;;24.30;10.60;;;;;;;2.28;72.61;100899.89;107602;1251;111470;-59
2023/11/14 00:10:43;;;;;;;20.50;10.90;;;;;;;2.27;72.69;100905.92;107616;1251;109926;-61
2023/11/14 00:13:11;;;;;;;22.70;11.50;;;;;;;2.25;72.68;100903.39;107577;1251;108623;-60
2023/11/14 00:15:39;;;;;;;18.00;10.20;;;;;;;2.19;72.69;100898.23;107619;1250;97908;-60
2023/11/14 00:18:07;;;;;;;19.10;10.60;;;;;;;2.16;72.71;100891.48;107659;1251;97704;-61
2023/11/14 00:20:36;;;;;;;23.90;10.30;;;;;;;2.15;72.66;100894.15;107609;1251;111085;-60
2023/11/14 00:23:04;;;;;;;17.10;10.50;;;;;;;2.15;72.75;100890.98;107608;1253;109712;-61
2023/11/14 00:25:32;;;;;;;18.50;10.80;;;;;;;2.15;72.90;100889.40;107632;1254;106409;-60
2023/11/14 00:28:01;;;;;;;20.10;10.10;;;;;;;2.15;73.05;100888.36;107647;1251;97897;-59
2023/11/14 00:30:29;;;;;;;20.30;10.10;;;;;;;2.14;72.99;100890.35;107652;1251;98374;-60
2023/11/14 00:32:57;;;;;;;17.40;9.10;;;;;;;2.11;73.02;100881.96;107645;1251;111510;-59
2023/11/14 00:35:26;;;;;;;18.60;10.30;;;;;;;2.09;72.86;100875.90;107623;1251;108130;-59
2023/11/14 00:37:54;;;;;;;23.10;10.80;;;;;;;2.09;73.14;100872.21;107629;1253;107682;-59
2023/11/14 00:40:23;;;;;;;20.30;9.60;;;;;;;2.10;73.30;100871.09;107595;1253;97814;-60
2023/11/14 00:42:51;;;;;;;15.10;9.30;;;;;;;2.09;73.28;100872.89;107608;1253;97707;-59
2023/11/14 00:45:20;;;;;;;18.80;9.60;;;;;;;2.06;72.92;100870.41;107532;1251;111934;-61
2023/11/14 00:47:48;;;;;;;17.60;9.20;;;;;;;2.03;72.85;100870.17;107641;1251;108744;-61
2023/11/14 00:50:17;;;;;;;21.90;10.40;;;;;;;2.01;72.92;100862.72;107606;1251;108649;-61
2023/11/14 00:52:46;;;;;;;21.50;10.70;;;;;;;2.00;72.84;100855.48;107613;1250;97909;-60
2023/11/14 00:55:15;;;;;;;22.00;9.10;;;;;;;1.99;73.07;100849.15;107563;1251;98544;-60
2023/11/14 00:57:43;;;;;;;18.40;8.80;;;;;;;1.98;72.75;100837.72;107560;1251;111674;-60
2023/11/14 01:00:12;;;;;;;14.50;8.80;;;;;;;1.95;72.87;100830.96;107631;1251;108345;-61
2023/11/14 01:02:41;;;;;;;26.40;9.60;;;;;;;1.93;72.98;100826.11;107407;1252;108946;-60
2023/11/14 01:05:10;;;;;;;22.50;9.40;;;;;;;1.93;73.02;100820.45;107582;1255;97878;-60
2023/11/14 01:07:39;;;;;;;19.60;10.20;;;;;;;1.92;73.07;100824.05;107624;1251;97839;-59
2023/11/14 01:10:10;;;;;;;17.50;8.40;;;;;;;1.91;73.05;100817.41;107611;1250;111980;-61
2023/11/14 01:12:38;;;;;;;13.90;8.10;;;;;;;1.90;72.79;100825.95;107697;1250;108256;-61
2023/11/14 01:15:06;;;;;;;20.90;8.50;;;;;;;1.84;72.47;100829.20;107563;1251;108190;-61
2023/11/14 01:17:35;;;;;;;16.20;9.00;;;;;;;1.77;72.53;100823.42;107718;1255;97736;-62
2023/11/14 01:20:05;;;;;;;17.70;8.80;;;;;;;1.72;72.79;100826.46;107581;1250;98347;-60
2023/11/14 01:22:34;;;;;;;15.30;8.30;;;;;;;1.69;72.77;100821.69;107682;1251;110747;-60
2023/11/14 01:25:02;;;;;;;17.20;7.70;;;;;;;1.62;72.87;100811.43;107706;1251;109556;-58
2023/11/14 01:27:32;;;;;;;14.10;9.20;;;;;;;1.59;72.79;100818.83;107606;1251;108157;-62
2023/11/14 01:30:00;;;;;;;16.30;8.10;;;;;;;1.59;73.06;100818.12;107558;1250;98004;-59
2023/11/14 01:32:29;;;;;;;20.60;8.30;;;;;;;1.58;73.15;100810.20;107634;1249;98463;-60
2023/11/14 01:34:57;;;;;;;20.70;8.60;;;;;;;1.59;73.33;100806.80;107526;1251;111065;-59
2023/11/14 01:37:26;;;;;;;20.20;9.10;;;;;;;1.61;73.27;100807.59;107567;1250;110207;-59
2023/11/14 01:39:54;;;;;;;16.40;8.30;;;;;;;1.62;73.59;100810.88;107400;1252;107541;-60
2023/11/14 01:42:23;;;;;;;13.60;8.30;;;;;;;1.63;73.30;100805.89;107703;1251;97856;-64
2023/11/14 01:44:51;;;;;;;18.10;8.60;;;;;;;1.63;73.38;100800.05;107625;1251;97898;-59
2023/11/14 01:47:20;;;;;;;25.10;8.30;;;;;;;1.65;73.61;100794.48;107667;1251;110898;-59
2023/11/14 01:49:49;;;;;;;21.90;7.20;;;;;;;1.67;73.62;100789.43;107627;1252;108468;-59
2023/11/14 01:52:19;;;;;;;24.60;9.40;;;;;;;1.67;73.69;100787.11;107430;1252;107706;-60
2023/11/14 01:54:47;;;;;;;13.90;7.90;;;;;;;1.69;73.87;100787.89;107610;1252;97838;-60
2023/11/14 01:57:17;;;;;;;16.60;9.10;;;;;;;1.71;73.91;100783.21;107623;1251;97916;-60
2023/11/14 01:59:47;;;;;;;15.40;8.20;;;;;;;1.74;73.88;100779.71;107519;1257;112214;-60
2023/11/14 02:02:16;;;;;;;17.10;7.90;;;;;;;1.77;73.95;100776.17;107688;1251;108264;-60
2023/11/14 02:04:47;;;;;;;15.20;8.70;;;;;;;1.80;74.04;100772.64;107745;1249;108077;-60
2023/11/14 02:07:20;;;;;;;16.70;8.40;;;;;;;1.82;73.79;100768.48;107599;1251;97809;-60
2023/11/14 02:09:50;;;;;;;14.30;8.20;;;;;;;1.80;73.73;100762.95;107707;1256;99049;-61
2023/11/14 02:12:19;;;;;;;25.70;8.60;;;;;;;1.82;73.74;100771.87;107696;1251;111070;-60
2023/11/14 02:14:48;;;;;;;14.50;7.70;;;;;;;1.86;73.81;100769.36;107665;1250;108633;-59
2023/11/14 02:17:16;;;;;;;14.20;8.50;;;;;;;1.87;73.78;100769.98;107594;1249;108249;-59
2023/11/14 02:19:45;;;;;;;19.60;8.50;;;;;;;1.89;73.76;100753.98;107704;1251;97836;-60
2023/11/14 02:22:13;;;;;;;13.00;8.50;;;;;;;1.91;73.86;100750.55;107703;1250;97800;-58
2023/11/14 02:24:53;;;;;;;17.10;8.60;;;;;;;1.92;74.10;100740.92;107678;1251;111319;-61
2023/11/14 02:27:22;;;;;;;19.90;9.10;;;;;;;1.92;73.79;100736.32;107565;1252;108957;-60
2023/11/14 02:29:53;;;;;;;22.50;9.70;;;;;;;1.92;73.76;100737.23;107597;1253;107633;-60
2023/11/14 02:32:22;;;;;;;23.10;9.90;;;;;;;1.92;73.91;100736.33;107618;1253;97813;-60
2023/11/14 02:34:52;;;;;;;17.00;9.50;;;;;;;1.93;74.05;100731.36;107451;1253;97883;-60
2023/11/14 02:37:22;;;;;;;16.70;8.30;;;;;;;1.93;74.30;100728.67;107699;1250;111562;-60
2023/11/14 02:39:51;;;;;;;15.20;8.70;;;;;;;1.92;73.89;100722.00;107628;1253;107912;-60
2023/11/14 02:42:19;;;;;;;16.10;9.00;;;;;;;1.91;73.89;100721.91;107685;1250;107673;-64
2023/11/14 02:44:47;;;;;;;17.30;8.00;;;;;;;1.88;74.26;100723.96;107641;1250;97832;-59
2023/11/14 02:47:17;;;;;;;19.90;9.30;;;;;;;1.85;73.99;100727.30;107678;1250;98347;-61
2023/11/14 02:49:57;;;;;;;20.40;10.70;;;;;;;1.81;73.79;100724.71;107693;1250;111815;-60
2023/11/14 02:52:26;;;;;;;14.80;8.20;;;;;;;1.73;73.79;100718.05;107619;1249;109952;-60
2023/11/14 02:54:55;;;;;;;14.90;8.70;;;;;;;1.70;74.18;100718.05;107682;1250;107703;-60
2023/11/14 02:57:23;;;;;;;19.80;8.70;;;;;;;1.66;74.10;100720.18;107619;1249;97897;-61
2023/11/14 02:59:52;;;;;;;18.90;9.70;;;;;;;1.64;74.07;100723.64;107627;1249;97790;-59
2023/11/14 03:02:20;;;;;;;14.70;8.30;;;;;;;1.64;74.22;100726.13;107582;1251;111999;-60
2023/11/14 03:04:49;;;;;;;17.70;9.00;;;;;;;1.65;74.16;100728.71;107506;1251;109265;-60
2023/11/14 03:07:17;;;;;;;22.70;9.80;;;;;;;1.62;74.28;100733.27;108024;1251;108576;-59
2023/11/14 03:09:46;;;;;;;22.30;10.00;;;;;;;1.63;74.46;100731.45;107506;1251;97864;-59
2023/11/14 03:12:14;;;;;;;22.00;9.00;;;;;;;1.65;74.50;100724.29;107511;1251;98372;-59
2023/11/14 03:14:42;;;;;;;19.20;8.60;;;;;;;1.67;74.59;100720.27;107553;1251;110905;-59
2023/11/14 03:17:10;;;;;;;17.40;8.00;;;;;;;1.71;74.93;100720.59;107612;1256;108964;-60
2023/11/14 03:19:41;;;;;;;15.90;9.40;;;;;;;1.76;75.15;100722.86;107579;1253;107828;-60
2023/11/14 03:22:10;;;;;;;23.20;9.20;;;;;;;1.82;74.96;100719.34;107576;1250;97844;-60
2023/11/14 03:24:39;;;;;;;21.80;8.80;;;;;;;1.88;74.94;100722.73;107621;1251;97807;-60
2023/11/14 03:27:08;;;;;;;16.30;8.50;;;;;;;1.93;74.82;100721.39;107679;1251;111485;-60
2023/11/14 03:29:36;;;;;;;14.90;9.00;;;;;;;1.99;74.80;100715.47;107661;1251;108364;-61
2023/11/14 03:32:05;;;;;;;22.90;9.70;;;;;;;2.03;74.65;100711.14;107569;1250;108319;-61
2023/11/14 03:34:33;;;;;;;22.20;9.80;;;;;;;2.09;74.88;100703.61;107592;1251;97707;-61
2023/11/14 03:37:03;;;;;;;23.00;8.80;;;;;;;2.13;74.80;100692.91;107579;1254;97858;-60
2023/11/14 03:39:33;;;;;;;22.70;9.50;;;;;;;2.17;74.97;100686.48;107474;1252;110542;-60
2023/11/14 03:42:02;;;;;;;13.20;8.70;;;;;;;2.24;75.15;100682.97;107604;1251;108818;-59
2023/11/14 03:44:30;;;;;;;20.40;9.90;;;;;;;2.30;75.25;100680.85;107650;1253;108584;-59
2023/11/14 03:46:58;;;;;;;16.50;9.80;;;;;;;2.37;75.47;100676.23;107608;1253;97852;-61
2023/11/14 03:49:27;;;;;;;16.50;9.70;;;;;;;2.43;75.52;100673.77;107629;1252;97953;-60
2023/11/14 03:51:56;;;;;;;17.90;8.80;;;;;;;2.49;75.39;100670.23;107647;1255;111973;-60
2023/11/14 03:54:25;;;;;;;21.00;9.60;;;;;;;2.55;75.28;100670.27;107674;1251;109779;-60
2023/11/14 03:56:53;;;;;;;19.40;10.00;;;;;;;2.59;75.25;100669.88;107585;1251;107712;-60
2023/11/14 03:59:23;;;;;;;29.90;11.00;;;;;;;2.62;75.42;100663.09;107602;1251;97930;-63
2023/11/14 04:01:51;;;;;;;23.60;9.70;;;;;;;2.68;75.53;100661.54;107551;1251;97849;-61
2023/11/14 04:04:20;;;;;;;21.60;10.30;;;;;;;2.74;75.48;100655.91;107554;1251;112789;-60
2023/11/14 04:06:48;;;;;;;20.40;9.10;;;;;;;2.81;75.63;100655.15;107584;1254;108360;-61
2023/11/14 04:09:18;;;;;;;20.60;10.90;;;;;;;2.88;75.66;100652.65;107630;1251;107258;-60
2023/11/14 04:11:48;;;;;;;17.20;10.20;;;;;;;2.92;75.69;100642.98;107587;1254;97924;-60
2023/11/14 04:14:18;;;;;;;24.60;10.90;;;;;;;2.98;75.45;100635.59;107646;1250;97764;-60
2023/11/14 04:16:47;;;;;;;14.80;9.40;;;;;;;3.03;75.33;100628.70;107687;1251;112032;-65
2023/11/14 04:19:16;;;;;;;24.50;10.20;;;;;;;3.07;75.39;100633.42;107638;1250;109656;-60
2023/11/14 04:21:44;;;;;;;21.10;10.90;;;;;;;3.14;75.30;100644.41;107621;1251;108579;-60
2023/11/14 04:24:12;;;;;;;21.20;10.50;;;;;;;3.19;75.32;100646.04;107570;1249;97978;-61
2023/11/14 04:26:42;;;;;;;19.00;11.20;;;;;;;3.24;75.68;100640.06;107641;1250;97748;-59
2023/11/14 04:29:11;;;;;;;21.80;12.40;;;;;;;3.28;75.45;100646.72;107609;1251;112173;-60
2023/11/14 04:31:39;;;;;;;25.40;11.80;;;;;;;3.32;75.54;100646.85;107685;1251;108717;-59
2023/11/14 04:34:08;;;;;;;23.60;13.70;;;;;;;3.35;75.46;100642.91;107583;1250;108281;-57
2023/11/14 04:36:36;;;;;;;19.70;10.70;;;;;;;3.38;75.32;100636.52;107587;1249;97819;-59
2023/11/14 04:39:05;;;;;;;22.70;9.70;;;;;;;3.40;75.17;100633.77;107595;1254;97703;-61
2023/11/14 04:41:33;;;;;;;15.50;9.90;;;;;;;3.44;75.24;100626.80;107581;1251;111894;-59
2023/11/14 04:44:02;;;;;;;19.90;10.80;;;;;;;3.47;75.33;100613.32;107672;1251;109601;-60
2023/11/14 04:46:31;;;;;;;26.70;12.70;;;;;;;3.49;75.23;100610.03;107589;1253;107255;-61
2023/11/14 04:48:59;;;;;;;36.70;14.10;;;;;;;3.50;75.16;100607.98;107656;1253;97916;-61
2023/11/14 04:51:27;;;;;;;26.80;12.50;;;;;;;3.49;75.34;100602.91;107605;1251;98339;-60
2023/11/14 04:53:56;;;;;;;34.30;11.60;;;;;;;3.48;75.22;100601.40;107644;1251;110378;-65
2023/11/14 04:56:24;;;;;;;25.00;11.50;;;;;;;3.46;75.26;100597.22;107608;1251;108940;-61
2023/11/14 04:58:53;;;;;;;31.00;12.20;;;;;;;3.45;75.40;100588.81;107591;1255;108398;-60
2023/11/14 05:01:21;;;;;;;38.40;13.20;;;;;;;3.40;75.09;100581.44;107618;1253;98003;-61
2023/11/14 05:03:50;;;;;;;25.80;10.80;;;;;;;3.38;75.21;100575.91;107628;1251;97818;-61
2023/11/14 05:06:18;;;;;;;28.50;11.10;;;;;;;3.36;75.18;100569.84;107599;1251;111694;-60
2023/11/14 05:08:47;;;;;;;23.00;10.00;;;;;;;3.34;75.24;100568.20;107509;1252;109740;-59
2023/11/14 05:11:15;;;;;;;27.70;10.30;;;;;;;3.31;75.18;100566.45;107651;1252;108176;-60
2023/11/14 05:13:43;;;;;;;28.20;11.90;;;;;;;3.29;75.02;100560.54;107678;1250;97937;-60
2023/11/14 05:16:12;;;;;;;28.80;13.00;;;;;;;3.27;75.11;100559.92;107603;1251;98450;-60
2023/11/14 05:18:51;;;;;;;23.20;10.30;;;;;;;3.26;75.15;100570.98;107619;1251;110722;-60
2023/11/14 05:21:20;;;;;;;29.70;12.10;;;;;;;3.22;75.15;100567.14;107608;1251;109591;-60
2023/11/14 05:23:48;;;;;;;39.00;9.70;;;;;;;3.20;75.14;100564.42;107556;1254;108690;-59
2023/11/14 05:26:16;;;;;;;25.50;11.40;;;;;;;3.19;75.06;100569.09;107610;1251;97823;-60
2023/11/14 05:28:45;;;;;;;29.10;10.50;;;;;;;3.19;75.17;100575.85;107651;1251;97766;-60
2023/11/14 05:31:14;;;;;;;34.50;11.00;;;;;;;3.19;75.16;100577.28;107586;1251;111472;-60
2023/11/14 05:33:42;;;;;;;29.50;11.60;;;;;;;3.19;75.31;100581.17;107617;1254;108889;-63
2023/11/14 05:36:12;;;;;;;17.50;10.20;;;;;;;3.19;75.31;100577.95;107621;1251;108265;-61
2023/11/14 05:38:40;;;;;;;30.70;11.90;;;;;;;3.20;74.99;100581.45;107517;1252;97871;-60
2023/11/14 05:41:09;;;;;;;33.70;12.90;;;;;;;3.21;74.99;100583.52;107634;1252;97939;-59
2023/11/14 05:43:38;;;;;;;23.60;10.70;;;;;;;3.25;75.28;100585.56;107656;1251;111941;-60
2023/11/14 05:46:07;;;;;;;20.30;10.10;;;;;;;3.33;75.07;100586.67;107588;1253;109738;-59
2023/11/14 05:48:36;;;;;;;16.10;8.80;;;;;;;3.42;75.23;100582.24;107590;1253;109123;-61
2023/11/14 05:51:05;;;;;;;28.10;9.70;;;;;;;3.49;74.94;100582.38;107599;1252;97939;-61
2023/11/14 05:53:33;;;;;;;21.50;9.40;;;;;;;3.56;75.32;100573.04;107599;1251;98441;-60
2023/11/14 05:56:02;;;;;;;26.60;9.90;;;;;;;3.66;75.26;100573.67;107608;1251;112392;-60
2023/11/14 05:58:31;;;;;;;22.90;10.10;;;;;;;3.77;75.11;100570.66;107637;1251;110181;-59
2023/11/14 06:00:59;;;;;;;29.50;10.90;;;;;;;3.91;75.31;100565.91;107612;1251;108243;-59
2023/11/14 06:03:27;;;;;;;20.10;9.60;;;;;;;4.02;75.06;100563.23;107566;1251;97826;-59
2023/11/14 06:05:56;;;;;;;30.30;12.10;;;;;;;4.11;75.03;100556.63;107608;1251;97824;-60
2023/11/14 06:08:26;;;;;;;26.10;10.60;;;;;;;4.22;75.02;100562.82;107554;1251;111117;-62
2023/11/14 06:10:55;;;;;;;21.00;10.50;;;;;;;4.31;74.65;100558.16;107606;1254;109575;-61
2023/11/14 06:13:23;;;;;;;21.70;10.30;;;;;;;4.38;74.66;100541.38;107638;1251;108605;-61
2023/11/14 06:15:52;;;;;;;21.40;9.70;;;;;;;4.46;74.66;100531.83;107613;1252;97863;-61
2023/11/14 06:18:20;;;;;;;24.60;10.80;;;;;;;4.50;74.28;100538.30;107607;1250;98363;-60
2023/11/14 06:20:48;;;;;;;20.80;9.60;;;;;;;4.55;74.50;100538.30;107634;1251;112447;-60
2023/11/14 06:23:19;;;;;;;20.10;10.20;;;;;;;4.57;74.14;100531.77;107665;1251;109500;-62
2023/11/14 06:25:47;;;;;;;22.90;9.30;;;;;;;4.63;74.10;100529.60;107610;1251;108566;-60
2023/11/14 06:28:15;;;;;;;27.30;9.90;;;;;;;4.70;73.98;100521.16;107624;1253;97941;-62
2023/11/14 06:30:44;;;;;;;28.40;10.00;;;;;;;4.76;74.00;100522.66;107623;1251;97807;-60
2023/11/14 06:33:12;;;;;;;16.40;8.80;;;;;;;4.82;73.92;100513.39;107615;1253;111857;-61
2023/11/14 06:35:41;;;;;;;38.50;10.60;;;;;;;4.85;73.96;100515.83;107641;1251;109792;-61
2023/11/14 06:38:10;;;;;;;37.70;10.60;;;;;;;4.90;74.00;100518.69;107574;1252;108492;-62
2023/11/14 06:40:39;;;;;;;43.40;12.90;;;;;;;4.99;74.22;100518.80;107578;1251;97845;-61
2023/11/14 06:43:07;;;;;;;20.10;10.20;;;;;;;5.09;74.31;100519.38;107675;1251;97842;-61
2023/11/14 06:45:36;;;;;;;24.30;9.80;;;;;;;5.19;74.36;100516.02;107613;1251;112315;-61
2023/11/14 06:48:05;;;;;;;27.40;9.50;;;;;;;5.28;74.31;100528.85;107627;1254;108939;-62
2023/11/14 06:50:33;;;;;;;30.40;8.40;;;;;;;5.36;73.76;100529.98;107583;1252;107496;-62
2023/11/14 06:53:11;;;;;;;37.20;9.30;;;;;;;5.37;73.55;100513.33;107608;1253;97826;-61
2023/11/14 06:55:40;;;;;;;21.00;8.00;;;;;;;5.45;73.68;100521.10;107575;1251;98363;-60
2023/11/14 06:58:10;;;;;;;16.90;7.90;;;;;;;5.59;73.80;100529.55;107581;1251;111212;-60
2023/11/14 07:00:41;;;;;;;23.80;8.40;;;;;;;5.72;73.50;100522.80;107593;1253;109208;-59
2023/11/14 07:03:10;;;;;;;22.20;9.60;;;;;;;5.87;73.46;100519.91;107615;1251;108888;-60
2023/11/14 07:05:38;;;;;;;18.80;8.70;;;;;;;6.01;73.40;100512.10;107649;1250;97837;-60
2023/11/14 07:08:07;;;;;;;26.80;9.50;;;;;;;6.15;73.36;100510.41;107633;1250;97825;-61
2023/11/14 07:10:36;;;;;;;27.70;13.40;;;;;;;6.29;73.23;100510.11;107624;1251;112352;-61
2023/11/14 07:13:04;;;;;;;19.30;10.30;;;;;;;6.47;73.34;100496.43;107599;1250;110136;-60
2023/11/14 07:15:33;;;;;;;21.00;9.50;;;;;;;6.70;73.25;100492.98;107613;1250;107416;-61
2023/11/14 07:18:02;;;;;;;30.30;11.40;;;;;;;6.87;72.83;100494.48;107619;1250;98620;-62
2023/11/14 07:20:30;;;;;;;17.80;9.40;;;;;;;6.97;72.82;100490.31;107688;1251;98421;-62
2023/11/14 07:22:59;;;;;;;13.90;8.50;;;;;;;7.00;72.54;100481.48;107623;1250;111030;-61
2023/11/14 07:25:28;;;;;;;17.90;8.60;;;;;;;7.01;72.30;100468.42;107575;1252;109905;-61
2023/11/14 07:27:57;;;;;;;17.90;8.20;;;;;;;7.00;72.19;100458.68;107584;1251;107617;-61
2023/11/14 07:30:27;;;;;;;19.50;9.70;;;;;;;6.99;71.98;100455.44;107612;1250;97927;-61
2023/11/14 07:32:56;;;;;;;17.00;9.40;;;;;;;6.95;71.92;100462.54;107620;1251;97804;-61
2023/11/14 07:35:26;;;;;;;16.00;8.60;;;;;;;6.92;72.02;100464.85;107660;1251;110818;-60
2023/11/14 07:37:55;;;;;;;27.00;11.50;;;;;;;6.90;72.10;100457.91;107506;1253;110006;-60
2023/11/14 07:40:24;;;;;;;19.30;8.40;;;;;;;6.89;72.30;100448.18;107646;1251;107449;-60
2023/11/14 07:42:52;;;;;;;16.90;10.70;;;;;;;6.91;72.60;100434.45;107642;1252;98011;-62
2023/11/14 07:45:20;;;;;;;26.50;16.80;;;;;;;6.94;72.59;100422.64;107613;1251;98362;-61
2023/11/14 07:47:49;;;;;;;23.40;15.20;;;;;;;6.97;73.18;100422.42;107617;1253;112392;-61
2023/11/14 07:50:18;;;;;;;25.00;17.70;;;;;;;6.95;73.38;100423.61;107543;1253;109876;-61
2023/11/14 07:52:46;;;;;;;26.00;17.70;;;;;;;6.98;73.67;100424.84;107548;1252;108277;-62
2023/11/14 07:55:16;;;;;;;31.40;17.50;;;;;;;7.04;73.86;100425.06;107610;1255;97944;-61
2023/11/14 07:57:44;;;;;;;22.30;15.10;;;;;;;7.13;73.98;100429.48;107638;1251;97823;-61
2023/11/14 08:00:13;;;;;;;24.10;12.80;;;;;;;7.25;74.11;100434.45;107634;1253;112184;-61
2023/11/14 08:02:42;;;;;;;17.80;9.40;;;;;;;7.36;74.15;100432.48;107637;1251;110455;-63
2023/11/14 08:05:12;;;;;;;15.50;8.50;;;;;;;7.44;74.15;100433.98;107583;1251;108825;-61
2023/11/14 08:07:40;;;;;;;17.30;8.90;;;;;;;7.52;74.10;100435.66;107574;1250;97969;-62
2023/11/14 08:10:09;;;;;;;18.90;8.30;;;;;;;7.63;74.18;100435.16;107620;1250;97731;-62
2023/11/14 08:12:37;;;;;;;13.50;7.40;;;;;;;7.73;74.27;100429.33;107684;1249;112503;-62
2023/11/14 08:15:06;;;;;;;17.00;8.60;;;;;;;7.80;74.23;100436.59;107633;1251;108745;-61
2023/11/14 08:17:34;;;;;;;15.70;7.60;;;;;;;7.83;74.52;100442.77;107712;1255;106655;-60
2023/11/14 08:20:04;;;;;;;15.30;7.30;;;;;;;7.83;74.64;100449.42;107567;1250;97860;-62
2023/11/14 08:22:32;;;;;;;14.60;7.90;;;;;;;7.82;74.44;100441.63;107647;1252;97705;-62
2023/11/14 08:25:00;;;;;;;13.00;7.90;;;;;;;7.86;74.54;100435.03;107655;1250;110964;-62
2023/11/14 08:27:31;;;;;;;18.90;9.90;;;;;;;7.94;74.89;100434.91;107593;1252;109611;-61
2023/11/14 08:30:00;;;;;;;20.60;10.90;;;;;;;7.97;74.78;100429.14;107570;1251;108322;-61
2023/11/14 08:32:28;;;;;;;20.60;10.30;;;;;;;8.09;75.20;100434.42;107627;1250;97797;-60
2023/11/14 08:34:58;;;;;;;16.80;9.50;;;;;;;8.29;75.23;100444.20;107536;1253;98604;-61
2023/11/14 08:37:26;;;;;;;17.20;9.00;;;;;;;8.48;75.42;100427.23;107580;1253;111194;-62
2023/11/14 08:39:55;;;;;;;17.30;8.70;;;;;;;8.60;75.02;100416.25;107677;1251;109746;-60
2023/11/14 08:42:24;;;;;;;13.90;8.70;;;;;;;8.78;75.00;100397.17;107543;1252;107356;-62
2023/11/14 08:44:52;;;;;;;12.80;7.90;;;;;;;9.19;74.67;100374.08;107592;1253;97822;-64
2023/11/14 08:47:22;;;;;;;13.30;6.80;;;;;;;9.64;74.13;100351.64;107631;1250;97678;-62
2023/11/14 08:49:51;;;;;;;14.00;7.50;;;;;;;10.21;73.26;100359.46;107717;1251;110704;-62
2023/11/14 08:52:20;;;;;;;13.60;6.20;;;;;;;11.32;72.24;100369.23;107582;1253;109103;-62
2023/11/14 08:54:48;;;;;;;21.70;6.70;;;;;;;12.23;70.60;100367.89;107578;1251;108161;-62
2023/11/14 08:57:16;;;;;;;15.80;6.70;;;;;;;12.43;68.60;100366.77;107606;1251;98672;-62
2023/11/14 08:59:46;;;;;;;12.00;6.50;;;;;;;12.53;68.12;100351.90;107713;1251;97711;-62
2023/11/14 09:02:14;;;;;;;14.60;7.20;;;;;;;12.98;67.60;100347.60;107620;1252;111547;-62
2023/11/14 09:04:42;;;;;;;11.50;6.20;;;;;;;12.97;66.25;100340.88;107604;1252;109268;-62
2023/11/14 09:07:11;;;;;;;13.10;6.20;;;;;;;13.04;66.01;100336.14;107740;1252;108551;-62
2023/11/14 09:09:40;;;;;;;13.90;6.80;;;;;;;13.33;64.02;100321.95;107598;1254;97838;-62
2023/11/14 09:12:08;;;;;;;11.90;6.90;;;;;;;13.87;63.84;100315.59;107621;1251;98432;-62
2023/11/14 09:14:37;;;;;;;13.00;6.40;;;;;;;13.87;64.18;100310.22;107608;1250;111908;-60
2023/11/14 09:17:05;;;;;;;13.30;6.60;;;;;;;13.87;63.12;100294.38;107603;1250;109824;-62
2023/11/14 09:19:34;;;;;;;9.90;6.10;;;;;;;14.11;62.87;100283.59;107537;1252;108835;-62
2023/11/14 09:22:02;;;;;;;29.30;10.00;;;;;;;14.30;62.60;100265.77;107619;1251;97916;-62
2023/11/14 09:24:31;;;;;;;18.50;7.70;;;;;;;14.94;62.17;100253.16;107634;1251;97835;-64
2023/11/14 09:26:59;;;;;;;10.20;5.20;;;;;;;15.79;59.88;100241.30;107660;1251;112137;-61
2023/11/14 09:29:27;;;;;;;16.80;4.70;;;;;;;16.73;57.78;100238.59;107655;1251;110444;-61
2023/11/14 09:31:55;;;;;;;12.50;5.80;;;;;;;17.61;56.96;100238.70;107589;1253;107673;-61
2023/11/14 09:34:24;;;;;;;8.50;4.60;;;;;;;18.50;55.25;100232.98;107619;1252;97859;-62
2023/11/14 09:36:53;;;;;;;10.20;4.40;;;;;;;19.29;53.29;100230.06;107581;1253;98372;-61
2023/11/14 09:39:21;;;;;;;9.70;4.20;;;;;;;20.08;50.30;100229.24;107592;1253;111278;-62
2023/11/14 09:41:55;;;;;;;;;;;;;;;20.72;43.84;100233.66;107653;1251;110055;-62
2023/11/14 09:44:27;;;;;;;8.20;2.60;;;;;;;21.18;40.18;100245.34;107612;1254;108196;-62
2023/11/14 09:46:56;;;;;;;6.50;2.70;;;;;;;21.67;35.43;100262.02;107604;1253;97710;-61
2023/11/14 09:49:26;;;;;;;7.10;2.80;;;;;;;21.87;35.91;100263.82;107601;1251;97843;-62
2023/11/14 09:51:59;;;;;;;9.60;3.00;;;;;;;22.06;36.94;100265.71;107591;1253;111437;-63
2023/11/14 09:54:28;;;;;;;8.00;2.90;;;;;;;22.37;37.22;100254.34;107631;1250;108221;-63
2023/11/14 09:56:57;;;;;;;7.50;3.30;;;;;;;22.78;35.88;100264.56;107591;1254;109362;-60
2023/11/14 09:59:27;;;;;;;7.30;3.30;;;;;;;23.09;34.04;100272.89;107597;1253;97918;-62
2023/11/14 10:01:55;;;;;;;9.00;3.40;;;;;;;23.12;33.05;100264.94;107654;1251;97723;-61
2023/11/14 10:04:24;;;;;;;7.70;3.20;;;;;;;22.79;32.73;100254.63;107640;1251;110695;-62
2023/11/14 10:06:53;;;;;;;9.90;4.50;;;;;;;22.62;33.25;100265.85;107557;1253;109638;-63
2023/11/14 10:09:23;;;;;;;7.50;3.60;;;;;;;22.65;34.30;100255.43;107547;1252;108716;-62
2023/11/14 10:11:52;;;;;;;10.30;3.00;;;;;;;22.45;34.13;100252.58;107260;1251;447327;-62
2023/11/14 10:14:45;;;;;;;10.30;3.50;;;;;;;21.92;32.89;100239.73;107632;1251;97834;-62
2023/11/14 10:17:16;;;;;;;7.50;3.60;;;;;;;21.48;33.48;100238.98;107585;1253;112162;-62
2023/11/14 10:20:07;;;;;;;7.50;3.80;;;;;;;21.41;33.10;100236.73;107601;1254;109951;-62
2023/11/14 10:23:03;;;;;;;9.30;3.80;;;;;;;20.95;34.14;100221.17;107525;1253;108509;-61
2023/11/14 10:25:37;;;;;;;7.20;3.20;;;;;;;20.73;35.30;100213.38;107575;1251;97743;-61
2023/11/14 10:28:06;;;;;;;5.00;3.10;;;;;;;20.37;35.81;100208.82;107624;1251;97842;-62
2023/11/14 10:30:49;;;;;;;14.00;4.10;;;;;;;20.31;35.94;100210.78;107681;1251;112102;-63
2023/11/14 10:33:18;;;;;;;12.60;3.60;;;;;;;20.38;35.77;100219.83;107606;1252;110111;-62
2023/11/14 10:35:47;;;;;;;7.90;3.40;;;;;;;20.53;34.87;100225.47;107596;1251;108848;-61
2023/11/14 10:38:19;;;;;;;8.20;2.80;;;;;;;20.66;34.85;100226.84;107440;1253;97952;-61
2023/11/14 10:40:54;;;;;;;6.50;3.50;;;;;;;20.10;36.03;100222.54;107614;1251;97716;-62
2023/11/14 10:43:31;;;;;;;5.10;3.40;;;;;;;19.69;36.67;100235.02;107611;1251;111535;-61
2023/11/14 10:46:27;;;;;;;9.80;3.40;;;;;;;19.13;37.51;100230.61;107617;1255;109670;-61
2023/11/14 10:49:01;;;;;;;8.10;3.00;;;;;;;19.32;37.65;100211.85;107530;1255;108387;-62
2023/11/14 10:51:38;;;;;;;7.90;3.20;;;;;;;20.23;36.43;100210.96;107568;1256;98381;-61
2023/11/14 10:54:08;;;;;;;7.90;3.10;;;;;;;20.48;36.22;100214.62;107571;1253;97727;-61
2023/11/14 10:56:37;;;;;;;12.00;3.40;;;;;;;21.00;36.49;100213.24;107678;1251;110300;-61
2023/11/14 10:59:20;;;;;;;12.40;3.60;;;;;;;21.89;35.06;100189.42;107633;1253;108919;-61
2023/11/14 11:01:48;;;;;;;9.40;2.80;;;;;;;21.81;34.61;100180.30;107582;1253;107731;-61
2023/11/14 11:04:17;;;;;;;8.60;2.80;;;;;;;21.20;35.21;100176.35;107515;1253;97824;-61
2023/11/14 11:06:47;;;;;;;8.40;3.50;;;;;;;20.59;35.75;100182.55;107602;1253;97809;-62
2023/11/14 11:09:17;;;;;;;5.20;3.00;;;;;;;19.99;36.51;100175.86;107688;1252;110308;-61
2023/11/14 11:11:52;;;;;;;12.50;3.30;;;;;;;20.09;37.18;100183.27;107555;1253;110187;-61
2023/11/14 11:14:22;;;;;;;6.40;3.10;;;;;;;20.37;37.41;100193.90;107491;1255;109360;-61
2023/11/14 11:16:51;;;;;;;5.40;3.20;;;;;;;21.13;37.20;100194.95;107596;1253;97864;-61
2023/11/14 11:19:28;;;;;;;7.20;3.80;;;;;;;21.73;35.39;100197.18;107628;1253;97761;-62